sensor_id;sensor_type;location;lat;lon;timestamp;temperature;humidity
26378;DHT22;14078;50.974;6.786;2023-04-29T00:02:14;12.30;99.90
26378;DHT22;14078;50.974;6.786;2023-04-29T00:04:41;12.40;99.90
26378;DHT22;14078;50.974;6.786;2023-04-29T00:07:07;12.30;99.90
26378;DHT22;14078;50.974;6.786;2023-04-29T00:09:34;12.30;99.90
26378;DHT22;14078;50.974;6.786;2023-04-29T00:12:02;12.30;99.90
26378;DHT22;14078;50.974;6.786;2023-04-29T00:14:29;12.20;99.90
26378;DHT22;14078;50.974;6.786;2023-04-29T00:16:56;12.20;99.90
26378;DHT22;14078;50.974;6.786;2023-04-29T00:19:23;12.20;99.90
26378;DHT22;14078;50.974;6.786;2023-04-29T00:21:49;12.20;99.90
26378;DHT22;14078;50.974;6.786;2023-04-29T00:24:16;12.20;99.90
26378;DHT22;14078;50.974;6.786;2023-04-29T00:26:42;12.20;99.90
26378;DHT22;14078;50.974;6.786;2023-04-29T00:29:09;12.10;99.90
26378;DHT22;14078;50.974;6.786;2023-04-29T00:31:37;12.10;99.90
26378;DHT22;14078;50.974;6.786;2023-04-29T00:34:03;12.00;99.90
26378;DHT22;14078;50.974;6.786;2023-04-29T00:36:30;12.10;99.90
26378;DHT22;14078;50.974;6.786;2023-04-29T00:38:57;12.10;99.90
26378;DHT22;14078;50.974;6.786;2023-04-29T00:41:24;12.00;99.90
26378;DHT22;14078;50.974;6.786;2023-04-29T00:43:51;12.10;99.90
26378;DHT22;14078;50.974;6.786;2023-04-29T00:46:17;12.00;99.90
26378;DHT22;14078;50.974;6.786;2023-04-29T00:48:45;12.10;99.90
26378;DHT22;14078;50.974;6.786;2023-04-29T00:51:12;12.10;99.90
26378;DHT22;14078;50.974;6.786;2023-04-29T00:53:39;12.10;99.90
26378;DHT22;14078;50.974;6.786;2023-04-29T00:56:05;12.10;99.90
26378;DHT22;14078;50.974;6.786;2023-04-29T00:58:33;12.00;99.90
26378;DHT22;14078;50.974;6.786;2023-04-29T01:01:00;12.00;99.90
26378;DHT22;14078;50.974;6.786;2023-04-29T01:03:28;11.90;99.90
26378;DHT22;14078;50.974;6.786;2023-04-29T01:05:59;11.90;99.90
26378;DHT22;14078;50.974;6.786;2023-04-29T01:08:29;11.90;99.90
26378;DHT22;14078;50.974;6.786;2023-04-29T01:11:00;12.00;99.90
26378;DHT22;14078;50.974;6.786;2023-04-29T01:13:32;12.00;99.90
26378;DHT22;14078;50.974;6.786;2023-04-29T01:16:00;11.90;99.90
26378;DHT22;14078;50.974;6.786;2023-04-29T01:18:29;11.80;99.90
26378;DHT22;14078;50.974;6.786;2023-04-29T01:20:59;11.70;99.90
26378;DHT22;14078;50.974;6.786;2023-04-29T01:23:27;11.70;99.90
26378;DHT22;14078;50.974;6.786;2023-04-29T01:25:54;11.60;99.90
26378;DHT22;14078;50.974;6.786;2023-04-29T01:28:24;11.60;99.90
26378;DHT22;14078;50.974;6.786;2023-04-29T01:30:53;11.60;99.90
26378;DHT22;14078;50.974;6.786;2023-04-29T01:33:23;11.60;99.90
26378;DHT22;14078;50.974;6.786;2023-04-29T01:35:55;11.70;99.90
26378;DHT22;14078;50.974;6.786;2023-04-29T01:38:28;11.70;99.90
26378;DHT22;14078;50.974;6.786;2023-04-29T01:40:58;11.60;99.90
26378;DHT22;14078;50.974;6.786;2023-04-29T01:43:28;11.60;99.90
26378;DHT22;14078;50.974;6.786;2023-04-29T01:45:55;11.60;99.90
26378;DHT22;14078;50.974;6.786;2023-04-29T01:48:22;11.60;99.90
26378;DHT22;14078;50.974;6.786;2023-04-29T01:50:49;11.60;99.90
26378;DHT22;14078;50.974;6.786;2023-04-29T01:53:16;11.50;99.90
26378;DHT22;14078;50.974;6.786;2023-04-29T01:55:43;11.50;99.90
26378;DHT22;14078;50.974;6.786;2023-04-29T01:58:10;11.50;99.90
26378;DHT22;14078;50.974;6.786;2023-04-29T02:00:36;11.40;99.90
26378;DHT22;14078;50.974;6.786;2023-04-29T02:03:03;11.40;99.90
26378;DHT22;14078;50.974;6.786;2023-04-29T02:05:29;11.30;99.90
26378;DHT22;14078;50.974;6.786;2023-04-29T02:07:58;11.30;99.90
26378;DHT22;14078;50.974;6.786;2023-04-29T02:10:24;11.30;99.90
26378;DHT22;14078;50.974;6.786;2023-04-29T02:12:53;11.30;99.90
26378;DHT22;14078;50.974;6.786;2023-04-29T02:15:19;11.30;99.90
26378;DHT22;14078;50.974;6.786;2023-04-29T02:17:46;11.30;99.90
26378;DHT22;14078;50.974;6.786;2023-04-29T02:20:13;11.20;99.90
26378;DHT22;14078;50.974;6.786;2023-04-29T02:22:40;11.20;99.90
26378;DHT22;14078;50.974;6.786;2023-04-29T02:25:07;11.20;99.90
26378;DHT22;14078;50.974;6.786;2023-04-29T02:27:33;11.20;99.90
26378;DHT22;14078;50.974;6.786;2023-04-29T02:30:01;11.20;99.90
26378;DHT22;14078;50.974;6.786;2023-04-29T02:32:29;11.20;99.90
26378;DHT22;14078;50.974;6.786;2023-04-29T02:34:55;11.20;99.90
26378;DHT22;14078;50.974;6.786;2023-04-29T02:37:22;11.10;99.90
26378;DHT22;14078;50.974;6.786;2023-04-29T02:39:48;11.10;99.90
26378;DHT22;14078;50.974;6.786;2023-04-29T02:42:15;11.10;99.90
26378;DHT22;14078;50.974;6.786;2023-04-29T02:44:42;11.10;99.90
26378;DHT22;14078;50.974;6.786;2023-04-29T02:47:10;11.10;99.90
26378;DHT22;14078;50.974;6.786;2023-04-29T02:49:36;11.00;99.90
26378;DHT22;14078;50.974;6.786;2023-04-29T02:52:03;11.00;99.90
26378;DHT22;14078;50.974;6.786;2023-04-29T02:54:29;10.90;99.90
26378;DHT22;14078;50.974;6.786;2023-04-29T02:56:56;10.90;99.90
26378;DHT22;14078;50.974;6.786;2023-04-29T02:59:23;10.90;99.90
26378;DHT22;14078;50.974;6.786;2023-04-29T03:01:49;10.90;99.90
26378;DHT22;14078;50.974;6.786;2023-04-29T03:04:19;10.90;99.90
26378;DHT22;14078;50.974;6.786;2023-04-29T03:06:46;10.80;99.90
26378;DHT22;14078;50.974;6.786;2023-04-29T03:09:12;10.70;99.90
26378;DHT22;14078;50.974;6.786;2023-04-29T03:11:39;10.70;99.90
26378;DHT22;14078;50.974;6.786;2023-04-29T03:14:05;10.60;99.90
26378;DHT22;14078;50.974;6.786;2023-04-29T03:16:32;10.60;99.90
26378;DHT22;14078;50.974;6.786;2023-04-29T03:18:58;10.60;99.90
26378;DHT22;14078;50.974;6.786;2023-04-29T03:21:26;10.60;99.90
26378;DHT22;14078;50.974;6.786;2023-04-29T03:23:54;10.60;99.90
26378;DHT22;14078;50.974;6.786;2023-04-29T03:26:20;10.50;99.90
26378;DHT22;14078;50.974;6.786;2023-04-29T03:28:49;10.50;99.90
26378;DHT22;14078;50.974;6.786;2023-04-29T03:31:15;10.40;99.90
26378;DHT22;14078;50.974;6.786;2023-04-29T03:33:42;10.40;99.90
26378;DHT22;14078;50.974;6.786;2023-04-29T03:36:08;10.40;99.90
26378;DHT22;14078;50.974;6.786;2023-04-29T03:38:36;10.40;99.90
26378;DHT22;14078;50.974;6.786;2023-04-29T03:41:02;10.40;99.90
26378;DHT22;14078;50.974;6.786;2023-04-29T03:43:29;10.30;99.90
26378;DHT22;14078;50.974;6.786;2023-04-29T03:45:56;10.20;99.90
26378;DHT22;14078;50.974;6.786;2023-04-29T03:48:22;10.20;99.90
26378;DHT22;14078;50.974;6.786;2023-04-29T03:50:49;10.10;99.90
26378;DHT22;14078;50.974;6.786;2023-04-29T03:53:15;10.10;99.90
26378;DHT22;14078;50.974;6.786;2023-04-29T03:55:44;10.00;99.90
26378;DHT22;14078;50.974;6.786;2023-04-29T03:58:10;9.90;99.90
26378;DHT22;14078;50.974;6.786;2023-04-29T04:00:37;9.80;99.90
26378;DHT22;14078;50.974;6.786;2023-04-29T04:03:03;9.90;99.90
26378;DHT22;14078;50.974;6.786;2023-04-29T04:05:30;9.80;99.90
26378;DHT22;14078;50.974;6.786;2023-04-29T04:07:56;9.80;99.90
26378;DHT22;14078;50.974;6.786;2023-04-29T04:10:24;9.80;99.90
26378;DHT22;14078;50.974;6.786;2023-04-29T04:12:53;9.80;99.90
26378;DHT22;14078;50.974;6.786;2023-04-29T04:15:20;9.90;99.90
26378;DHT22;14078;50.974;6.786;2023-04-29T04:17:47;9.80;99.90
26378;DHT22;14078;50.974;6.786;2023-04-29T04:20:13;9.80;99.90
26378;DHT22;14078;50.974;6.786;2023-04-29T04:22:40;9.80;99.90
26378;DHT22;14078;50.974;6.786;2023-04-29T04:25:07;9.80;99.90
26378;DHT22;14078;50.974;6.786;2023-04-29T04:27:34;9.80;99.90
26378;DHT22;14078;50.974;6.786;2023-04-29T04:30:02;9.80;99.90
26378;DHT22;14078;50.974;6.786;2023-04-29T04:32:28;9.80;99.90
26378;DHT22;14078;50.974;6.786;2023-04-29T04:34:55;9.70;99.90
26378;DHT22;14078;50.974;6.786;2023-04-29T04:37:22;9.70;99.90
26378;DHT22;14078;50.974;6.786;2023-04-29T04:39:49;9.80;99.90
26378;DHT22;14078;50.974;6.786;2023-04-29T04:42:15;9.80;99.90
26378;DHT22;14078;50.974;6.786;2023-04-29T04:44:42;9.70;99.90
26378;DHT22;14078;50.974;6.786;2023-04-29T04:47:10;9.80;99.90
26378;DHT22;14078;50.974;6.786;2023-04-29T04:49:36;9.80;99.90
26378;DHT22;14078;50.974;6.786;2023-04-29T04:52:03;9.80;99.90
26378;DHT22;14078;50.974;6.786;2023-04-29T04:54:30;9.80;99.90
26378;DHT22;14078;50.974;6.786;2023-04-29T04:56:56;9.70;99.90
26378;DHT22;14078;50.974;6.786;2023-04-29T04:59:23;9.70;99.90
26378;DHT22;14078;50.974;6.786;2023-04-29T05:01:49;9.70;99.90
26378;DHT22;14078;50.974;6.786;2023-04-29T05:04:17;9.60;99.90
26378;DHT22;14078;50.974;6.786;2023-04-29T05:06:43;9.70;99.90
26378;DHT22;14078;50.974;6.786;2023-04-29T05:09:11;9.60;99.90
26378;DHT22;14078;50.974;6.786;2023-04-29T05:11:37;9.60;99.90
26378;DHT22;14078;50.974;6.786;2023-04-29T05:14:04;9.70;99.90
26378;DHT22;14078;50.974;6.786;2023-04-29T05:16:30;9.70;99.90
26378;DHT22;14078;50.974;6.786;2023-04-29T05:18:57;9.70;99.90
26378;DHT22;14078;50.974;6.786;2023-04-29T05:21:25;9.70;99.90
26378;DHT22;14078;50.974;6.786;2023-04-29T05:23:51;9.70;99.90
26378;DHT22;14078;50.974;6.786;2023-04-29T05:26:18;9.80;99.90
26378;DHT22;14078;50.974;6.786;2023-04-29T05:28:44;9.80;99.90
26378;DHT22;14078;50.974;6.786;2023-04-29T05:31:11;9.80;99.90
26378;DHT22;14078;50.974;6.786;2023-04-29T05:33:37;9.80;99.90
26378;DHT22;14078;50.974;6.786;2023-04-29T05:36:04;9.80;99.90
26378;DHT22;14078;50.974;6.786;2023-04-29T05:38:32;9.80;99.90
26378;DHT22;14078;50.974;6.786;2023-04-29T05:40:58;9.80;99.90
26378;DHT22;14078;50.974;6.786;2023-04-29T05:43:25;9.90;99.90
26378;DHT22;14078;50.974;6.786;2023-04-29T05:45:52;9.90;99.90
26378;DHT22;14078;50.974;6.786;2023-04-29T05:48:18;9.80;99.90
26378;DHT22;14078;50.974;6.786;2023-04-29T05:50:45;9.80;99.90
26378;DHT22;14078;50.974;6.786;2023-04-29T05:53:12;9.90;99.90
26378;DHT22;14078;50.974;6.786;2023-04-29T05:55:40;10.00;99.90
26378;DHT22;14078;50.974;6.786;2023-04-29T05:58:09;10.00;99.90
26378;DHT22;14078;50.974;6.786;2023-04-29T06:00:35;10.00;99.90
26378;DHT22;14078;50.974;6.786;2023-04-29T06:03:02;10.00;99.90
26378;DHT22;14078;50.974;6.786;2023-04-29T06:05:28;10.00;99.90
26378;DHT22;14078;50.974;6.786;2023-04-29T06:07:55;10.10;99.90
26378;DHT22;14078;50.974;6.786;2023-04-29T06:10:22;10.10;99.90
26378;DHT22;14078;50.974;6.786;2023-04-29T06:12:50;10.10;99.90
26378;DHT22;14078;50.974;6.786;2023-04-29T06:15:16;10.10;99.90
26378;DHT22;14078;50.974;6.786;2023-04-29T06:17:43;10.10;99.90
26378;DHT22;14078;50.974;6.786;2023-04-29T06:20:10;10.10;99.90
26378;DHT22;14078;50.974;6.786;2023-04-29T06:22:36;10.20;99.90
26378;DHT22;14078;50.974;6.786;2023-04-29T06:25:03;10.20;99.90
26378;DHT22;14078;50.974;6.786;2023-04-29T06:27:30;10.40;99.90
26378;DHT22;14078;50.974;6.786;2023-04-29T06:29:58;10.30;99.90
26378;DHT22;14078;50.974;6.786;2023-04-29T06:32:24;10.30;99.90
26378;DHT22;14078;50.974;6.786;2023-04-29T06:34:51;10.30;99.90
26378;DHT22;14078;50.974;6.786;2023-04-29T06:37:18;10.40;99.90
26378;DHT22;14078;50.974;6.786;2023-04-29T06:39:44;10.40;99.90
26378;DHT22;14078;50.974;6.786;2023-04-29T06:42:11;10.40;99.90
26378;DHT22;14078;50.974;6.786;2023-04-29T06:44:38;10.40;99.90
26378;DHT22;14078;50.974;6.786;2023-04-29T06:47:06;10.40;99.90
26378;DHT22;14078;50.974;6.786;2023-04-29T06:49:32;10.40;99.90
26378;DHT22;14078;50.974;6.786;2023-04-29T06:51:59;10.40;99.90
26378;DHT22;14078;50.974;6.786;2023-04-29T06:54:27;10.40;99.90
26378;DHT22;14078;50.974;6.786;2023-04-29T06:56:53;10.40;99.90
26378;DHT22;14078;50.974;6.786;2023-04-29T06:59:20;10.50;99.90
26378;DHT22;14078;50.974;6.786;2023-04-29T07:01:46;10.50;99.90
26378;DHT22;14078;50.974;6.786;2023-04-29T07:04:15;10.60;99.90
26378;DHT22;14078;50.974;6.786;2023-04-29T07:06:41;10.60;99.90
26378;DHT22;14078;50.974;6.786;2023-04-29T07:09:11;10.70;99.90
26378;DHT22;14078;50.974;6.786;2023-04-29T07:11:38;10.70;99.90
26378;DHT22;14078;50.974;6.786;2023-04-29T07:14:05;10.80;99.90
26378;DHT22;14078;50.974;6.786;2023-04-29T07:16:31;10.90;99.90
26378;DHT22;14078;50.974;6.786;2023-04-29T07:18:58;11.00;99.90
26378;DHT22;14078;50.974;6.786;2023-04-29T07:21:26;11.00;99.90
26378;DHT22;14078;50.974;6.786;2023-04-29T07:23:52;11.00;99.90
26378;DHT22;14078;50.974;6.786;2023-04-29T07:26:19;11.10;99.90
26378;DHT22;14078;50.974;6.786;2023-04-29T07:28:47;11.10;99.90
26378;DHT22;14078;50.974;6.786;2023-04-29T07:31:13;11.20;99.90
26378;DHT22;14078;50.974;6.786;2023-04-29T07:33:40;11.20;99.90
26378;DHT22;14078;50.974;6.786;2023-04-29T07:36:07;11.30;99.90
26378;DHT22;14078;50.974;6.786;2023-04-29T07:38:35;11.40;99.90
26378;DHT22;14078;50.974;6.786;2023-04-29T07:41:01;11.50;99.90
26378;DHT22;14078;50.974;6.786;2023-04-29T07:43:28;11.50;99.90
26378;DHT22;14078;50.974;6.786;2023-04-29T07:45:55;11.70;99.90
26378;DHT22;14078;50.974;6.786;2023-04-29T07:48:22;11.50;99.90
26378;DHT22;14078;50.974;6.786;2023-04-29T07:50:48;11.40;99.90
26378;DHT22;14078;50.974;6.786;2023-04-29T07:53:15;11.30;99.90
26378;DHT22;14078;50.974;6.786;2023-04-29T07:55:45;11.30;99.90
26378;DHT22;14078;50.974;6.786;2023-04-29T07:58:12;11.30;99.90
26378;DHT22;14078;50.974;6.786;2023-04-29T08:00:38;11.20;99.90
26378;DHT22;14078;50.974;6.786;2023-04-29T08:03:05;11.20;99.90
26378;DHT22;14078;50.974;6.786;2023-04-29T08:05:31;11.20;99.90
26378;DHT22;14078;50.974;6.786;2023-04-29T08:07:58;11.20;99.90
26378;DHT22;14078;50.974;6.786;2023-04-29T08:10:24;11.10;99.90
26378;DHT22;14078;50.974;6.786;2023-04-29T08:12:52;11.10;99.90
26378;DHT22;14078;50.974;6.786;2023-04-29T08:15:21;11.10;99.90
26378;DHT22;14078;50.974;6.786;2023-04-29T08:17:48;11.00;99.90
26378;DHT22;14078;50.974;6.786;2023-04-29T08:20:16;11.00;99.90
26378;DHT22;14078;50.974;6.786;2023-04-29T08:22:43;11.10;99.90
26378;DHT22;14078;50.974;6.786;2023-04-29T08:25:10;11.10;99.90
26378;DHT22;14078;50.974;6.786;2023-04-29T08:27:36;11.00;99.90
26378;DHT22;14078;50.974;6.786;2023-04-29T08:30:05;11.00;99.90
26378;DHT22;14078;50.974;6.786;2023-04-29T08:32:32;11.00;99.90
26378;DHT22;14078;50.974;6.786;2023-04-29T08:34:59;10.90;99.90
26378;DHT22;14078;50.974;6.786;2023-04-29T08:37:26;10.90;99.90
26378;DHT22;14078;50.974;6.786;2023-04-29T08:39:52;10.90;99.90
26378;DHT22;14078;50.974;6.786;2023-04-29T08:42:19;11.10;99.90
26378;DHT22;14078;50.974;6.786;2023-04-29T08:44:55;11.00;99.90
26378;DHT22;14078;50.974;6.786;2023-04-29T08:47:24;11.10;99.90
26378;DHT22;14078;50.974;6.786;2023-04-29T08:49:52;11.20;99.90
26378;DHT22;14078;50.974;6.786;2023-04-29T08:52:19;11.50;99.90
26378;DHT22;14078;50.974;6.786;2023-04-29T08:54:45;11.60;99.90
26378;DHT22;14078;50.974;6.786;2023-04-29T08:57:12;11.70;99.90
26378;DHT22;14078;50.974;6.786;2023-04-29T08:59:38;11.80;99.90
26378;DHT22;14078;50.974;6.786;2023-04-29T09:02:05;11.90;99.90
26378;DHT22;14078;50.974;6.786;2023-04-29T09:04:39;12.00;99.90
26378;DHT22;14078;50.974;6.786;2023-04-29T09:07:07;12.10;99.90
26378;DHT22;14078;50.974;6.786;2023-04-29T09:09:33;12.30;99.90
26378;DHT22;14078;50.974;6.786;2023-04-29T09:12:00;12.30;99.90
26378;DHT22;14078;50.974;6.786;2023-04-29T09:14:27;12.20;99.90
26378;DHT22;14078;50.974;6.786;2023-04-29T09:16:54;12.20;99.90
26378;DHT22;14078;50.974;6.786;2023-04-29T09:19:28;12.30;99.90
26378;DHT22;14078;50.974;6.786;2023-04-29T09:21:56;12.40;99.90
26378;DHT22;14078;50.974;6.786;2023-04-29T09:24:23;12.40;99.90
26378;DHT22;14078;50.974;6.786;2023-04-29T09:26:50;12.40;99.90
26378;DHT22;14078;50.974;6.786;2023-04-29T09:29:17;12.40;99.90
26378;DHT22;14078;50.974;6.786;2023-04-29T09:31:44;12.30;99.90
26378;DHT22;14078;50.974;6.786;2023-04-29T09:34:10;12.30;99.90
26378;DHT22;14078;50.974;6.786;2023-04-29T09:36:38;12.20;99.90
26378;DHT22;14078;50.974;6.786;2023-04-29T09:39:07;12.20;99.90
26378;DHT22;14078;50.974;6.786;2023-04-29T09:44:22;12.00;99.90
26378;DHT22;14078;50.974;6.786;2023-04-29T09:46:53;11.90;99.90
26378;DHT22;14078;50.974;6.786;2023-04-29T09:49:22;11.90;99.90
26378;DHT22;14078;50.974;6.786;2023-04-29T09:51:53;12.00;99.90
26378;DHT22;14078;50.974;6.786;2023-04-29T09:54:21;12.00;99.90
26378;DHT22;14078;50.974;6.786;2023-04-29T09:56:48;12.00;99.90
26378;DHT22;14078;50.974;6.786;2023-04-29T09:59:15;11.90;99.90
26378;DHT22;14078;50.974;6.786;2023-04-29T10:01:41;12.00;99.90
26378;DHT22;14078;50.974;6.786;2023-04-29T10:04:08;12.10;99.90
26378;DHT22;14078;50.974;6.786;2023-04-29T10:06:36;12.00;99.90
26378;DHT22;14078;50.974;6.786;2023-04-29T10:09:03;11.90;99.90
26378;DHT22;14078;50.974;6.786;2023-04-29T10:11:31;11.90;99.90
26378;DHT22;14078;50.974;6.786;2023-04-29T10:13:57;11.80;99.90
26378;DHT22;14078;50.974;6.786;2023-04-29T10:16:26;11.80;99.90
26378;DHT22;14078;50.974;6.786;2023-04-29T10:18:54;11.80;99.90
26378;DHT22;14078;50.974;6.786;2023-04-29T10:21:23;11.80;99.90
26378;DHT22;14078;50.974;6.786;2023-04-29T10:23:52;11.80;99.90
26378;DHT22;14078;50.974;6.786;2023-04-29T10:26:19;11.80;99.90
26378;DHT22;14078;50.974;6.786;2023-04-29T10:28:48;11.60;99.90
26378;DHT22;14078;50.974;6.786;2023-04-29T10:31:16;11.60;99.90
26378;DHT22;14078;50.974;6.786;2023-04-29T10:33:45;11.60;99.90
26378;DHT22;14078;50.974;6.786;2023-04-29T10:36:13;11.60;99.90
26378;DHT22;14078;50.974;6.786;2023-04-29T10:41:32;11.60;99.90
26378;DHT22;14078;50.974;6.786;2023-04-29T10:44:01;11.50;99.90
26378;DHT22;14078;50.974;6.786;2023-04-29T10:46:28;11.50;99.90
26378;DHT22;14078;50.974;6.786;2023-04-29T10:48:55;11.40;99.90
26378;DHT22;14078;50.974;6.786;2023-04-29T10:51:29;11.40;99.90
26378;DHT22;14078;50.974;6.786;2023-04-29T10:53:57;11.50;99.90
26378;DHT22;14078;50.974;6.786;2023-04-29T10:56:34;11.60;99.90
26378;DHT22;14078;50.974;6.786;2023-04-29T10:59:02;11.50;99.90
26378;DHT22;14078;50.974;6.786;2023-04-29T11:01:39;11.60;99.90
26378;DHT22;14078;50.974;6.786;2023-04-29T11:04:06;11.60;99.90
26378;DHT22;14078;50.974;6.786;2023-04-29T11:06:46;11.70;99.90
26378;DHT22;14078;50.974;6.786;2023-04-29T11:09:23;11.80;99.90
26378;DHT22;14078;50.974;6.786;2023-04-29T11:11:57;11.90;99.90
26378;DHT22;14078;50.974;6.786;2023-04-29T11:14:28;11.80;99.90
26378;DHT22;14078;50.974;6.786;2023-04-29T11:16:55;11.80;99.90
26378;DHT22;14078;50.974;6.786;2023-04-29T11:19:23;11.80;99.90
26378;DHT22;14078;50.974;6.786;2023-04-29T11:21:53;11.80;99.90
26378;DHT22;14078;50.974;6.786;2023-04-29T11:24:28;11.90;99.90
26378;DHT22;14078;50.974;6.786;2023-04-29T11:26:57;11.80;99.90
26378;DHT22;14078;50.974;6.786;2023-04-29T11:29:30;11.80;99.90
26378;DHT22;14078;50.974;6.786;2023-04-29T11:31:58;11.70;99.90
26378;DHT22;14078;50.974;6.786;2023-04-29T11:34:24;11.80;99.90
26378;DHT22;14078;50.974;6.786;2023-04-29T11:36:52;11.70;99.90
26378;DHT22;14078;50.974;6.786;2023-04-29T11:39:18;11.80;99.90
26378;DHT22;14078;50.974;6.786;2023-04-29T11:41:45;11.80;99.90
26378;DHT22;14078;50.974;6.786;2023-04-29T11:44:11;11.80;99.90
26378;DHT22;14078;50.974;6.786;2023-04-29T11:46:39;11.90;99.90
26378;DHT22;14078;50.974;6.786;2023-04-29T11:49:06;11.90;99.90
26378;DHT22;14078;50.974;6.786;2023-04-29T11:51:32;11.80;99.90
26378;DHT22;14078;50.974;6.786;2023-04-29T11:53:59;11.80;99.90
26378;DHT22;14078;50.974;6.786;2023-04-29T11:56:26;11.80;99.90
26378;DHT22;14078;50.974;6.786;2023-04-29T11:58:52;11.80;99.90
26378;DHT22;14078;50.974;6.786;2023-04-29T12:01:20;12.00;99.90
26378;DHT22;14078;50.974;6.786;2023-04-29T12:03:48;12.10;99.90
26378;DHT22;14078;50.974;6.786;2023-04-29T12:06:15;12.30;99.90
26378;DHT22;14078;50.974;6.786;2023-04-29T12:08:41;12.40;99.90
26378;DHT22;14078;50.974;6.786;2023-04-29T12:11:08;12.60;99.90
26378;DHT22;14078;50.974;6.786;2023-04-29T12:13:34;12.80;99.90
26378;DHT22;14078;50.974;6.786;2023-04-29T12:16:01;12.80;99.90
26378;DHT22;14078;50.974;6.786;2023-04-29T12:18:28;12.70;99.90
26378;DHT22;14078;50.974;6.786;2023-04-29T12:20:56;12.60;99.90
26378;DHT22;14078;50.974;6.786;2023-04-29T12:23:23;12.60;99.90
26378;DHT22;14078;50.974;6.786;2023-04-29T12:25:51;12.70;99.90
26378;DHT22;14078;50.974;6.786;2023-04-29T12:28:18;12.70;99.90
26378;DHT22;14078;50.974;6.786;2023-04-29T12:30:45;12.80;99.90
26378;DHT22;14078;50.974;6.786;2023-04-29T12:33:14;13.00;99.90
26378;DHT22;14078;50.974;6.786;2023-04-29T12:35:41;12.90;99.90
26378;DHT22;14078;50.974;6.786;2023-04-29T12:38:09;12.80;99.90
26378;DHT22;14078;50.974;6.786;2023-04-29T12:40:36;12.80;99.90
26378;DHT22;14078;50.974;6.786;2023-04-29T12:43:06;12.90;99.90
26378;DHT22;14078;50.974;6.786;2023-04-29T12:45:33;13.00;99.90
26378;DHT22;14078;50.974;6.786;2023-04-29T12:48:00;13.00;99.90
26378;DHT22;14078;50.974;6.786;2023-04-29T12:50:28;13.10;99.90
26378;DHT22;14078;50.974;6.786;2023-04-29T12:52:55;13.50;99.90
26378;DHT22;14078;50.974;6.786;2023-04-29T12:55:23;13.70;99.90
26378;DHT22;14078;50.974;6.786;2023-04-29T12:57:49;13.60;99.90
26378;DHT22;14078;50.974;6.786;2023-04-29T13:00:16;13.60;99.90
26378;DHT22;14078;50.974;6.786;2023-04-29T13:02:44;13.70;99.90
26378;DHT22;14078;50.974;6.786;2023-04-29T13:05:11;13.80;99.90
26378;DHT22;14078;50.974;6.786;2023-04-29T13:07:37;13.70;99.90
26378;DHT22;14078;50.974;6.786;2023-04-29T13:10:04;13.80;99.90
26378;DHT22;14078;50.974;6.786;2023-04-29T13:12:32;13.80;43.80
26378;DHT22;14078;50.974;6.786;2023-04-29T13:14:59;14.00;11.50
26378;DHT22;14078;50.974;6.786;2023-04-29T13:17:26;14.20;2.30
26378;DHT22;14078;50.974;6.786;2023-04-29T13:19:52;14.20;1.00
26378;DHT22;14078;50.974;6.786;2023-04-29T13:22:19;14.30;1.00
26378;DHT22;14078;50.974;6.786;2023-04-29T13:24:46;14.30;1.00
26378;DHT22;14078;50.974;6.786;2023-04-29T13:27:12;14.30;1.00
26378;DHT22;14078;50.974;6.786;2023-04-29T13:29:40;14.20;1.00
26378;DHT22;14078;50.974;6.786;2023-04-29T13:32:06;14.40;1.00
26378;DHT22;14078;50.974;6.786;2023-04-29T13:34:33;14.30;99.90
26378;DHT22;14078;50.974;6.786;2023-04-29T13:37:00;14.40;1.00
26378;DHT22;14078;50.974;6.786;2023-04-29T13:39:26;14.40;1.00
26378;DHT22;14078;50.974;6.786;2023-04-29T13:41:53;14.40;1.00
26378;DHT22;14078;50.974;6.786;2023-04-29T13:44:19;14.40;1.00
26378;DHT22;14078;50.974;6.786;2023-04-29T13:46:47;14.40;99.90
26378;DHT22;14078;50.974;6.786;2023-04-29T13:49:16;14.60;47.80
26378;DHT22;14078;50.974;6.786;2023-04-29T13:51:42;14.80;1.00
26378;DHT22;14078;50.974;6.786;2023-04-29T13:54:09;14.90;99.90
26378;DHT22;14078;50.974;6.786;2023-04-29T13:56:35;15.00;1.00
26378;DHT22;14078;50.974;6.786;2023-04-29T13:59:02;15.10;99.90
26378;DHT22;14078;50.974;6.786;2023-04-29T14:01:28;15.30;1.00
26378;DHT22;14078;50.974;6.786;2023-04-29T14:03:56;15.30;99.90
26378;DHT22;14078;50.974;6.786;2023-04-29T14:06:23;15.40;99.90
26378;DHT22;14078;50.974;6.786;2023-04-29T14:08:50;15.40;1.00
26378;DHT22;14078;50.974;6.786;2023-04-29T14:11:16;15.50;99.90
26378;DHT22;14078;50.974;6.786;2023-04-29T14:13:43;15.70;1.00
26378;DHT22;14078;50.974;6.786;2023-04-29T14:16:10;15.80;99.90
26378;DHT22;14078;50.974;6.786;2023-04-29T14:18:36;15.50;1.00
26378;DHT22;14078;50.974;6.786;2023-04-29T14:21:04;15.50;99.90
26378;DHT22;14078;50.974;6.786;2023-04-29T14:23:31;15.40;99.90
26378;DHT22;14078;50.974;6.786;2023-04-29T14:25:57;15.20;99.90
26378;DHT22;14078;50.974;6.786;2023-04-29T14:28:24;15.10;99.90
26378;DHT22;14078;50.974;6.786;2023-04-29T14:30:50;14.90;99.90
26378;DHT22;14078;50.974;6.786;2023-04-29T14:33:17;14.90;81.90
26378;DHT22;14078;50.974;6.786;2023-04-29T14:35:43;14.80;1.00
26378;DHT22;14078;50.974;6.786;2023-04-29T14:38:11;14.90;1.00
26378;DHT22;14078;50.974;6.786;2023-04-29T14:40:38;15.00;99.90
26378;DHT22;14078;50.974;6.786;2023-04-29T14:43:05;14.90;1.00
26378;DHT22;14078;50.974;6.786;2023-04-29T14:45:32;14.90;99.90
26378;DHT22;14078;50.974;6.786;2023-04-29T14:47:58;14.70;99.90
26378;DHT22;14078;50.974;6.786;2023-04-29T14:50:25;14.80;99.90
26378;DHT22;14078;50.974;6.786;2023-04-29T14:52:51;14.90;1.00
26378;DHT22;14078;50.974;6.786;2023-04-29T14:55:19;14.90;1.00
26378;DHT22;14078;50.974;6.786;2023-04-29T14:57:46;15.00;99.90
26378;DHT22;14078;50.974;6.786;2023-04-29T15:00:13;14.90;99.90
26378;DHT22;14078;50.974;6.786;2023-04-29T15:02:40;14.90;1.00
26378;DHT22;14078;50.974;6.786;2023-04-29T15:05:06;14.90;99.90
26378;DHT22;14078;50.974;6.786;2023-04-29T15:07:33;15.00;99.90
26378;DHT22;14078;50.974;6.786;2023-04-29T15:10:00;14.80;1.00
26378;DHT22;14078;50.974;6.786;2023-04-29T15:12:28;14.70;1.00
26378;DHT22;14078;50.974;6.786;2023-04-29T15:14:54;14.60;99.90
26378;DHT22;14078;50.974;6.786;2023-04-29T15:17:21;14.50;1.00
26378;DHT22;14078;50.974;6.786;2023-04-29T15:19:47;14.50;99.90
26378;DHT22;14078;50.974;6.786;2023-04-29T15:22:14;14.50;1.00
26378;DHT22;14078;50.974;6.786;2023-04-29T15:24:40;14.40;99.90
26378;DHT22;14078;50.974;6.786;2023-04-29T15:27:08;14.30;90.70
26378;DHT22;14078;50.974;6.786;2023-04-29T15:29:36;14.30;56.80
26378;DHT22;14078;50.974;6.786;2023-04-29T15:32:03;14.30;99.90
26378;DHT22;14078;50.974;6.786;2023-04-29T15:34:29;14.30;99.90
26378;DHT22;14078;50.974;6.786;2023-04-29T15:36:56;14.30;1.00
26378;DHT22;14078;50.974;6.786;2023-04-29T15:39:24;14.30;99.90
26378;DHT22;14078;50.974;6.786;2023-04-29T15:41:50;14.20;99.90